Augusta, New York
Current Conditions -  °F | °C
As of 10:53 AM on Sunday 21 Dec 2014 (Local Time) from KRME Reporting Station
Overcast Overcast  
Wind Chill: -2°   Ceiling: 3000
Heat Index: -2°   Visibility: 10mi
Dew Point: -6°   Wind: 3mph
Humidity: 75%   Direction: 140°SE
Pressure: 30.36"   Gusts: NA
Location:  42.9771°N, 75.5023°W
Report Text: KRME 211553Z 14003KT 10SM OVC030 M02/M06 A3036 RMK AO2 SLP285 T10171056
Loading
Personal Weather Stations






























Interactive Weather Map New forecast layout! Learn more

10-Day Weather Forecast

Advertisements
Track Severe Weather on mobile